createdAt,value
2022-10-29T00:02:02.549Z,100829.25
2022-10-29T00:04:32.040Z,100831.16
2022-10-29T00:07:01.443Z,100829.72
2022-10-29T00:09:30.808Z,100820.16
2022-10-29T00:12:00.224Z,100823.28
2022-10-29T00:14:29.629Z,100827.53
2022-10-29T00:16:59.061Z,100835.34
2022-10-29T00:19:28.604Z,100821.88
2022-10-29T00:21:57.209Z,100826.63
2022-10-29T00:24:26.585Z,100840.03
2022-10-29T00:26:55.989Z,100842.94
2022-10-29T00:29:24.644Z,100837.34
2022-10-29T00:31:54.188Z,100849.84
2022-10-29T00:34:23.675Z,100837.09
2022-10-29T00:36:52.287Z,100831.72
2022-10-29T00:39:21.703Z,100829.09
2022-10-29T00:41:52.918Z,100837.16
2022-10-29T00:44:38.704Z,100837.16
2022-10-29T00:47:36.046Z,100833.94
2022-10-29T00:50:10.472Z,100844.06
2022-10-29T00:52:45.763Z,100827.97
2022-10-29T00:55:16.604Z,100833.63
2022-10-29T00:57:53.100Z,100834.88
2022-10-29T01:00:23.349Z,100835.09
2022-10-29T01:02:53.092Z,100833.69
2022-10-29T01:05:25.886Z,100839.88
2022-10-29T01:07:55.431Z,100837.81
2022-10-29T01:11:34.090Z,100836.06
2022-10-29T01:14:45.293Z,100827.59
2022-10-29T01:18:04.095Z,100823.56
2022-10-29T01:21:16.678Z,100820.84
2022-10-29T01:24:38.256Z,100810.16
2022-10-29T01:27:50.119Z,100807.22
2022-10-29T01:31:13.246Z,100804.38
2022-10-29T01:34:10.901Z,100787.91
2022-10-29T01:37:01.916Z,100789.78
2022-10-29T01:39:57.955Z,100792.97
2022-10-29T01:42:39.046Z,100790.75
2022-10-29T01:45:45.010Z,100786.78
2022-10-29T01:48:22.800Z,100787.00
2022-10-29T01:50:58.939Z,100785.69
2022-10-29T01:53:31.068Z,100785.75
2022-10-29T01:56:00.505Z,100788.66
2022-10-29T01:58:30.055Z,100773.78
2022-10-29T02:01:24.233Z,100772.06
2022-10-29T02:04:45.713Z,100773.47
2022-10-29T02:07:49.129Z,100771.88
2022-10-29T02:11:09.761Z,100762.53
2022-10-29T02:14:09.758Z,100757.94
2022-10-29T02:16:39.677Z,100761.44
2022-10-29T02:19:09.165Z,100759.84
2022-10-29T02:21:40.544Z,100762.94
2022-10-29T02:24:10.248Z,100761.50
2022-10-29T02:26:39.690Z,100751.31
2022-10-29T02:29:09.107Z,100753.38
2022-10-29T02:31:38.503Z,100752.22
2022-10-29T02:34:08.107Z,100741.78
2022-10-29T02:36:37.628Z,100750.19
2022-10-29T02:39:07.108Z,100743.22
2022-10-29T02:41:36.622Z,100741.47
2022-10-29T02:44:05.430Z,100741.00
2022-10-29T02:46:39.674Z,100747.88
2022-10-29T02:49:09.402Z,100729.06
2022-10-29T02:51:38.831Z,100749.31
2022-10-29T02:54:08.331Z,100738.78
2022-10-29T02:56:37.733Z,100743.69
2022-10-29T02:59:10.788Z,100741.56
2022-10-29T03:01:41.760Z,100754.63
2022-10-29T03:04:12.568Z,100755.47
2022-10-29T03:06:41.984Z,100754.94
2022-10-29T03:09:11.473Z,100754.00
2022-10-29T03:11:40.912Z,100752.72
2022-10-29T03:14:10.414Z,100755.25
2022-10-29T03:16:39.819Z,100762.38
2022-10-29T03:19:09.295Z,100759.84
2022-10-29T03:21:38.696Z,100765.88
2022-10-29T03:24:07.704Z,100755.75
2022-10-29T03:26:36.434Z,100749.31
2022-10-29T03:29:05.867Z,100751.94
2022-10-29T03:31:34.576Z,100747.50
2022-10-29T03:34:03.338Z,100744.72
2022-10-29T03:36:32.829Z,100742.34
2022-10-29T03:39:02.227Z,100745.91
2022-10-29T03:41:31.684Z,100749.06
2022-10-29T03:44:01.077Z,100737.03
2022-10-29T03:46:29.800Z,100750.97
2022-10-29T03:48:59.414Z,100745.59
2022-10-29T03:51:28.914Z,100757.38
2022-10-29T03:53:57.525Z,100747.47
2022-10-29T03:56:26.981Z,100747.13
2022-10-29T03:58:56.467Z,100749.81
2022-10-29T04:01:26.159Z,100742.75
2022-10-29T04:03:55.697Z,100736.63
2022-10-29T04:06:25.103Z,100752.25
2022-10-29T04:08:55.709Z,100743.84
2022-10-29T04:11:25.118Z,100749.06
2022-10-29T04:13:54.816Z,100731.75
2022-10-29T04:16:24.484Z,100739.88
2022-10-29T04:18:53.969Z,100747.03
2022-10-29T04:29:52.077Z,100728.09
2022-10-29T04:32:21.627Z,100731.28
2022-10-29T04:34:51.083Z,100735.75
2022-10-29T04:37:20.484Z,100741.88
2022-10-29T04:39:49.944Z,100733.06
2022-10-29T04:42:19.499Z,100733.31
2022-10-29T04:44:48.184Z,100729.91
2022-10-29T04:47:17.686Z,100733.69
2022-10-29T04:49:47.139Z,100741.31
2022-10-29T04:52:16.694Z,100735.63
2022-10-29T04:54:46.132Z,100734.22
2022-10-29T04:57:14.771Z,100732.44
2022-10-29T04:59:44.385Z,100726.13
2022-10-29T05:02:13.931Z,100735.84
2022-10-29T05:04:43.413Z,100733.69
2022-10-29T05:07:12.898Z,100748.06
2022-10-29T05:09:40.650Z,100740.13
2022-10-29T05:12:09.586Z,100738.72
2022-10-29T05:14:39.048Z,100744.78
2022-10-29T05:17:08.577Z,100727.19
2022-10-29T05:19:37.304Z,100730.38
2022-10-29T05:22:06.736Z,100743.69
2022-10-29T05:24:35.375Z,100749.31
2022-10-29T05:27:07.732Z,100746.16
2022-10-29T05:29:37.227Z,100745.50
2022-10-29T05:32:06.717Z,100752.31
2022-10-29T05:34:38.380Z,100752.78
2022-10-29T05:37:08.875Z,100751.03
2022-10-29T05:39:38.329Z,100754.59
2022-10-29T05:42:07.767Z,100747.00
2022-10-29T05:44:37.264Z,100751.53
2022-10-29T05:47:08.151Z,100760.41
2022-10-29T05:49:37.521Z,100757.63
2022-10-29T05:52:06.999Z,100759.81
2022-10-29T05:54:36.473Z,100738.13
2022-10-29T05:57:05.938Z,100739.19
2022-10-29T05:59:35.506Z,100744.47
2022-10-29T06:02:05.281Z,100751.28
2022-10-29T06:04:35.350Z,100757.63
2022-10-29T06:07:05.394Z,100755.78
2022-10-29T06:09:34.868Z,100760.53
2022-10-29T06:12:04.874Z,100754.00
2022-10-29T06:14:34.521Z,100756.53
2022-10-29T06:17:03.979Z,100754.28
2022-10-29T06:19:33.475Z,100747.47
2022-10-29T06:22:03.021Z,100747.88
2022-10-29T06:24:32.636Z,100742.41
2022-10-29T06:27:02.206Z,100738.78
2022-10-29T06:29:42.364Z,100746.63
2022-10-29T06:32:11.832Z,100757.00
2022-10-29T06:34:41.263Z,100750.63
2022-10-29T06:37:11.032Z,100761.88
2022-10-29T06:39:40.457Z,100761.34
2022-10-29T06:42:09.942Z,100761.72
2022-10-29T06:44:39.502Z,100768.88
2022-10-29T06:47:09.012Z,100765.06
2022-10-29T06:49:37.370Z,100767.34
2022-10-29T06:52:06.327Z,100772.31
2022-10-29T06:54:35.790Z,100779.09
2022-10-29T06:57:05.166Z,100776.41
2022-10-29T06:59:34.675Z,100769.47
2022-10-29T07:02:04.307Z,100765.13
2022-10-29T07:04:36.881Z,100754.63
2022-10-29T07:07:06.324Z,100753.44
2022-10-29T07:09:35.818Z,100759.41
2022-10-29T07:12:05.718Z,100763.63
2022-10-29T07:14:35.484Z,100753.97
2022-10-29T07:17:04.940Z,100752.28
2022-10-29T07:19:34.458Z,100770.25
2022-10-29T07:22:04.002Z,100769.16
2022-10-29T07:24:33.444Z,100783.09
2022-10-29T07:27:03.041Z,100778.19
2022-10-29T07:29:33.367Z,100774.53
2022-10-29T07:32:02.892Z,100781.84
2022-10-29T07:34:32.396Z,100763.47
2022-10-29T07:37:01.923Z,100763.41
2022-10-29T07:42:20.066Z,100761.78
2022-10-29T07:44:52.597Z,100764.94
2022-10-29T07:47:22.129Z,100772.38
2022-10-29T07:49:51.549Z,100781.75
2022-10-29T07:52:20.960Z,100780.00
2022-10-29T07:54:49.610Z,100789.16
2022-10-29T07:57:19.181Z,100783.97
2022-10-29T07:59:48.021Z,100785.88
2022-10-29T08:02:17.615Z,100793.09
2022-10-29T08:04:47.193Z,100774.47
2022-10-29T08:07:16.788Z,100769.47
2022-10-29T08:09:45.456Z,100768.72
2022-10-29T08:12:14.192Z,100774.69
2022-10-29T08:14:43.824Z,100764.56
2022-10-29T08:17:12.531Z,100765.06
2022-10-29T08:19:41.211Z,100764.50
2022-10-29T08:22:10.678Z,100753.66
2022-10-29T08:24:40.119Z,100752.41
2022-10-29T08:27:09.600Z,100758.81
2022-10-29T08:29:39.050Z,100762.03
2022-10-29T08:32:08.584Z,100759.22
2022-10-29T08:34:38.020Z,100760.09
2022-10-29T08:37:08.434Z,100760.56
2022-10-29T08:39:37.904Z,100752.72
2022-10-29T08:42:41.169Z,100753.06
2022-10-29T08:45:35.250Z,100759.84
2022-10-29T08:48:44.545Z,100771.41
2022-10-29T08:51:22.803Z,100774.63
2022-10-29T08:54:25.042Z,100773.97
2022-10-29T08:56:54.317Z,100767.69
2022-10-29T08:59:26.705Z,100772.84
2022-10-29T09:01:56.369Z,100765.16
2022-10-29T09:04:36.067Z,100763.50
2022-10-29T09:07:47.910Z,100754.94
2022-10-29T09:10:51.193Z,100756.13
2022-10-29T09:13:44.881Z,100769.28
2022-10-29T09:17:14.705Z,100769.81
2022-10-29T09:20:15.507Z,100766.09
2022-10-29T09:23:03.314Z,100773.94
2022-10-29T09:25:46.702Z,100761.28
2022-10-29T09:28:34.148Z,100754.69
2022-10-29T09:31:27.843Z,100759.84
2022-10-29T09:34:06.265Z,100746.06
2022-10-29T09:36:35.105Z,100756.06
2022-10-29T09:39:19.690Z,100760.66
2022-10-29T09:41:55.137Z,100741.00
2022-10-29T09:44:57.258Z,100747.00
2022-10-29T09:48:03.868Z,100751.25
2022-10-29T09:51:17.675Z,100751.41
2022-10-29T09:53:47.304Z,100747.19
2022-10-29T09:56:16.003Z,100748.84
2022-10-29T09:58:53.585Z,100747.94
2022-10-29T10:01:23.236Z,100740.94
2022-10-29T10:04:12.827Z,100743.50
2022-10-29T10:07:18.623Z,100749.53
2022-10-29T10:10:02.137Z,100731.19
2022-10-29T10:12:52.085Z,100730.19
2022-10-29T10:15:31.008Z,100727.63
2022-10-29T10:18:16.771Z,100720.59
2022-10-29T10:21:09.783Z,100724.53
2022-10-29T10:23:47.508Z,100707.63
2022-10-29T10:26:45.020Z,100710.09
2022-10-29T10:29:26.604Z,100715.63
2022-10-29T10:31:58.962Z,100701.88
2022-10-29T10:34:39.374Z,100700.50
2022-10-29T10:37:10.925Z,100709.19
2022-10-29T10:40:04.041Z,100716.94
2022-10-29T10:42:43.014Z,100697.94
2022-10-29T10:45:24.677Z,100698.00
2022-10-29T10:47:59.164Z,100690.56
2022-10-29T10:50:37.479Z,100684.38
2022-10-29T10:53:22.110Z,100690.31
2022-10-29T10:55:58.118Z,100701.78
2022-10-29T10:58:45.169Z,100690.69
2022-10-29T11:01:44.371Z,100700.00
2022-10-29T11:04:35.329Z,100699.22
2022-10-29T11:07:10.010Z,100701.50
2022-10-29T11:09:47.000Z,100699.75
2022-10-29T11:12:35.282Z,100686.78
2022-10-29T11:15:30.143Z,100683.13
2022-10-29T11:18:35.431Z,100660.31
2022-10-29T11:21:33.628Z,100670.44
2022-10-29T11:24:43.742Z,100670.84
2022-10-29T11:27:34.829Z,100681.44
2022-10-29T11:30:16.478Z,100676.25
2022-10-29T11:33:06.534Z,100676.19
2022-10-29T11:36:19.387Z,100664.78
2022-10-29T11:39:23.692Z,100659.31
2022-10-29T11:41:59.627Z,100650.69
2022-10-29T11:44:39.587Z,100650.50
2022-10-29T11:48:22.012Z,100657.53
2022-10-29T11:51:11.154Z,100652.09
2022-10-29T11:54:37.622Z,100651.75
2022-10-29T11:57:40.967Z,100647.09
2022-10-29T12:00:16.919Z,100642.56
2022-10-29T12:03:44.592Z,100636.56
2022-10-29T12:06:40.296Z,100640.53
2022-10-29T12:10:03.331Z,100621.88
2022-10-29T12:13:26.163Z,100611.56
2022-10-29T12:16:42.828Z,100620.59
2022-10-29T12:19:45.073Z,100626.00
2022-10-29T12:23:05.231Z,100627.69
2022-10-29T12:26:10.564Z,100626.44
2022-10-29T12:29:20.054Z,100624.03
2022-10-29T12:32:44.939Z,100627.03
2022-10-29T12:35:45.119Z,100632.81
2022-10-29T12:38:45.333Z,100634.59
2022-10-29T12:41:44.634Z,100631.16
2022-10-29T12:44:33.770Z,100626.81
2022-10-29T12:47:51.215Z,100627.47
2022-10-29T12:51:22.439Z,100614.38
2022-10-29T12:54:37.709Z,100597.19
2022-10-29T12:57:33.947Z,100596.53
2022-10-29T13:00:27.487Z,100593.34
2022-10-29T13:02:58.388Z,100590.75
2022-10-29T13:05:26.331Z,100588.06
2022-10-29T13:08:04.772Z,100577.50
2022-10-29T13:10:34.217Z,100573.22
2022-10-29T13:13:27.483Z,100566.97
2022-10-29T13:16:13.363Z,100557.09
2022-10-29T13:18:56.952Z,100568.88
2022-10-29T13:22:34.666Z,100570.28
2022-10-29T13:25:38.224Z,100559.22
2022-10-29T13:28:08.615Z,100567.50
2022-10-29T13:30:41.706Z,100574.03
2022-10-29T13:33:27.286Z,100574.47
2022-10-29T13:36:29.678Z,100572.22
2022-10-29T13:39:07.316Z,100578.28
2022-10-29T13:41:46.561Z,100580.31
2022-10-29T13:44:22.730Z,100581.53
2022-10-29T13:47:04.319Z,100582.25
2022-10-29T13:49:49.297Z,100589.03
2022-10-29T13:52:24.957Z,100577.25
2022-10-29T13:55:15.684Z,100575.13
2022-10-29T13:58:22.789Z,100578.91
2022-10-29T14:00:51.275Z,100576.53
2022-10-29T14:03:56.413Z,100569.94
2022-10-29T14:06:33.839Z,100572.84
2022-10-29T14:09:38.426Z,100577.31
2022-10-29T14:12:10.908Z,100576.06
2022-10-29T14:15:10.234Z,100576.66
2022-10-29T14:17:39.940Z,100576.03
2022-10-29T14:20:25.016Z,100577.09
2022-10-29T14:22:53.421Z,100561.19
2022-10-29T14:25:41.411Z,100562.19
2022-10-29T14:28:38.397Z,100561.72
2022-10-29T14:31:22.903Z,100552.56
2022-10-29T14:33:59.722Z,100547.63
2022-10-29T14:36:49.417Z,100548.75
2022-10-29T14:39:55.343Z,100547.19
2022-10-29T14:42:43.643Z,100548.63
2022-10-29T14:45:30.021Z,100543.13
2022-10-29T14:48:10.462Z,100536.84
2022-10-29T14:50:38.371Z,100550.63
2022-10-29T14:53:34.872Z,100555.59
2022-10-29T14:56:11.851Z,100559.25
2022-10-29T14:58:40.171Z,100560.03
2022-10-29T15:01:17.221Z,100553.38
2022-10-29T15:03:45.358Z,100560.22
2022-10-29T15:06:19.270Z,100556.19
2022-10-29T15:09:07.676Z,100557.75
2022-10-29T15:11:42.228Z,100562.34
2022-10-29T15:14:50.816Z,100561.53
2022-10-29T15:17:31.808Z,100548.75
2022-10-29T15:20:05.588Z,100545.78
2022-10-29T15:22:39.903Z,100546.81
2022-10-29T15:25:31.239Z,100542.81
2022-10-29T15:28:02.458Z,100548.66
2022-10-29T15:30:37.172Z,100544.13
2022-10-29T15:33:15.003Z,100543.88
2022-10-29T15:36:04.114Z,100550.91
2022-10-29T15:38:34.356Z,100543.75
2022-10-29T15:41:12.657Z,100545.28
2022-10-29T15:43:55.680Z,100539.00
2022-10-29T15:46:30.880Z,100534.31
2022-10-29T15:49:00.416Z,100529.97
2022-10-29T15:51:32.275Z,100529.25
2022-10-29T15:54:03.475Z,100535.66
2022-10-29T15:56:32.698Z,100525.19
2022-10-29T15:59:01.298Z,100535.81
2022-10-29T16:01:31.000Z,100522.41
2022-10-29T16:04:00.629Z,100513.69
2022-10-29T16:06:29.128Z,100512.94
2022-10-29T16:09:00.418Z,100503.81
2022-10-29T16:11:30.276Z,100508.41
2022-10-29T16:14:02.905Z,100509.78
2022-10-29T16:16:31.805Z,100510.56
2022-10-29T16:19:01.371Z,100526.94
2022-10-29T16:21:34.005Z,100529.66
2022-10-29T16:24:03.816Z,100551.47
2022-10-29T16:26:31.680Z,100553.97
2022-10-29T16:29:02.043Z,100560.59
2022-10-29T16:31:30.694Z,100554.34
2022-10-29T16:34:06.668Z,100547.91
2022-10-29T16:36:34.516Z,100543.06
2022-10-29T16:39:02.271Z,100545.03
2022-10-29T16:41:30.485Z,100554.16
2022-10-29T16:43:58.227Z,100549.13
2022-10-29T16:46:28.084Z,100527.41
2022-10-29T16:48:55.789Z,100539.31
2022-10-29T16:51:25.529Z,100543.56
2022-10-29T16:53:53.489Z,100527.22
2022-10-29T16:56:23.018Z,100529.22
2022-10-29T16:58:51.115Z,100520.78
2022-10-29T17:03:53.693Z,100522.38
2022-10-29T17:06:23.302Z,100513.06
2022-10-29T17:08:51.064Z,100527.56
2022-10-29T17:11:20.666Z,100531.06
2022-10-29T17:13:50.377Z,100526.88
2022-10-29T17:16:19.139Z,100520.00
2022-10-29T17:18:50.854Z,100527.66
2022-10-29T17:21:19.149Z,100527.75
2022-10-29T17:23:48.895Z,100530.00
2022-10-29T17:26:18.392Z,100530.34
2022-10-29T17:28:46.167Z,100522.69
2022-10-29T17:31:15.738Z,100529.03
2022-10-29T17:33:45.258Z,100531.56
2022-10-29T17:36:15.695Z,100516.84
2022-10-29T17:38:46.131Z,100530.94
2022-10-29T17:41:15.916Z,100528.84
2022-10-29T17:43:43.796Z,100537.63
2022-10-29T17:46:14.245Z,100537.47
2022-10-29T17:48:42.304Z,100540.41
2022-10-29T17:51:12.014Z,100533.78
2022-10-29T17:53:39.744Z,100532.41
2022-10-29T17:56:07.949Z,100525.47
2022-10-29T17:58:42.285Z,100519.34
2022-10-29T18:01:13.112Z,100520.72
2022-10-29T18:03:41.411Z,100511.03
2022-10-29T18:06:13.832Z,100509.13
2022-10-29T18:08:44.438Z,100515.19
2022-10-29T18:11:17.661Z,100528.59
2022-10-29T18:13:49.242Z,100530.09
2022-10-29T18:16:27.137Z,100517.09
2022-10-29T18:19:03.032Z,100523.78
2022-10-29T18:21:32.727Z,100525.94
2022-10-29T18:24:03.095Z,100538.47
2022-10-29T18:26:35.785Z,100522.50
2022-10-29T18:29:12.718Z,100527.53
2022-10-29T18:31:44.995Z,100519.69
2022-10-29T18:34:17.087Z,100517.94
2022-10-29T18:36:47.726Z,100505.50
2022-10-29T18:39:17.259Z,100514.25
2022-10-29T18:41:46.745Z,100514.44
2022-10-29T18:44:14.526Z,100512.03
2022-10-29T18:46:44.234Z,100513.06
2022-10-29T18:49:15.960Z,100503.94
2022-10-29T18:51:46.476Z,100507.09
2022-10-29T18:54:15.014Z,100503.50
2022-10-29T18:56:44.617Z,100509.84
2022-10-29T18:59:14.281Z,100505.03
2022-10-29T19:01:42.546Z,100504.22
2022-10-29T19:04:18.408Z,100505.44
2022-10-29T19:06:47.215Z,100504.47
2022-10-29T19:09:15.131Z,100502.91
2022-10-29T19:11:44.676Z,100491.25
2022-10-29T19:14:14.721Z,100490.84
2022-10-29T19:16:42.630Z,100503.22
2022-10-29T19:19:16.053Z,100496.50
2022-10-29T19:21:49.369Z,100495.44
2022-10-29T19:24:19.125Z,100495.78
2022-10-29T19:26:47.452Z,100495.28
2022-10-29T19:29:17.487Z,100493.47
2022-10-29T19:31:48.278Z,100486.59
2022-10-29T19:34:16.068Z,100489.28
2022-10-29T19:36:43.919Z,100473.47
2022-10-29T19:39:14.549Z,100481.97
2022-10-29T19:41:44.043Z,100490.31
2022-10-29T19:44:14.137Z,100490.91
2022-10-29T19:46:43.945Z,100483.50
2022-10-29T19:49:13.524Z,100484.59
2022-10-29T19:51:43.170Z,100475.31
2022-10-29T19:54:12.964Z,100480.72
2022-10-29T19:56:42.523Z,100476.47
2022-10-29T19:59:10.418Z,100479.16
2022-10-29T20:01:41.955Z,100478.06
2022-10-29T20:04:10.409Z,100478.13
2022-10-29T20:06:38.178Z,100477.81
2022-10-29T20:09:07.853Z,100481.84
2022-10-29T20:11:37.375Z,100478.38
2022-10-29T20:14:06.991Z,100458.75
2022-10-29T20:16:36.459Z,100469.44
2022-10-29T20:19:05.987Z,100469.00
2022-10-29T20:21:35.557Z,100477.75
2022-10-29T20:24:03.630Z,100483.13
2022-10-29T20:26:31.456Z,100467.56
2022-10-29T20:28:59.709Z,100467.41
2022-10-29T20:31:34.715Z,100487.19
2022-10-29T20:34:09.313Z,100482.25
2022-10-29T20:36:39.184Z,100484.00
2022-10-29T20:39:08.712Z,100490.19
2022-10-29T20:41:38.514Z,100479.75
2022-10-29T20:44:09.102Z,100482.38
2022-10-29T20:46:42.522Z,100485.28
2022-10-29T20:49:13.156Z,100480.94
2022-10-29T20:51:42.739Z,100486.25
2022-10-29T20:54:15.016Z,100481.38
2022-10-29T20:56:44.593Z,100477.47
2022-10-29T20:59:14.198Z,100487.97
2022-10-29T21:01:42.071Z,100486.19
2022-10-29T21:04:11.727Z,100480.88
2022-10-29T21:06:39.518Z,100489.56
2022-10-29T21:09:07.800Z,100477.47
2022-10-29T21:11:35.523Z,100473.69
2022-10-29T21:14:06.205Z,100468.09
2022-10-29T21:16:33.991Z,100479.56
2022-10-29T21:19:07.298Z,100481.16
2022-10-29T21:21:37.272Z,100475.59
2022-10-29T21:24:07.345Z,100468.13
2022-10-29T21:26:35.085Z,100468.47
2022-10-29T21:29:02.984Z,100474.19
2022-10-29T21:31:30.866Z,100474.19
2022-10-29T21:33:58.668Z,100479.06
2022-10-29T21:36:26.697Z,100470.72
2022-10-29T21:38:56.533Z,100486.88
2022-10-29T21:41:26.111Z,100472.22
2022-10-29T21:43:57.134Z,100475.59
2022-10-29T21:46:24.873Z,100483.16
2022-10-29T21:48:56.874Z,100471.25
2022-10-29T21:51:25.247Z,100479.75
2022-10-29T21:53:55.563Z,100470.56
2022-10-29T21:56:25.251Z,100472.22
2022-10-29T21:58:52.986Z,100473.06
2022-10-29T22:01:21.025Z,100475.31
2022-10-29T22:03:51.865Z,100476.66
2022-10-29T22:06:24.111Z,100468.31
2022-10-29T22:08:58.732Z,100471.50
2022-10-29T22:11:29.547Z,100465.19
2022-10-29T22:13:59.282Z,100471.50
2022-10-29T22:16:27.077Z,100468.97
2022-10-29T22:18:56.617Z,100468.97
2022-10-29T22:21:26.855Z,100468.47
2022-10-29T22:23:59.126Z,100460.66
2022-10-29T22:26:30.458Z,100460.81
2022-10-29T22:29:00.024Z,100462.78
2022-10-29T22:31:30.660Z,100459.88
2022-10-29T22:34:00.202Z,100446.13
2022-10-29T22:36:28.640Z,100453.16
2022-10-29T22:39:01.602Z,100453.53
2022-10-29T22:41:31.851Z,100445.88
2022-10-29T22:44:01.637Z,100443.81
2022-10-29T22:46:31.257Z,100440.81
2022-10-29T22:49:03.806Z,100440.56
2022-10-29T22:51:34.424Z,100443.97
2022-10-29T22:54:04.662Z,100436.41
2022-10-29T22:56:38.552Z,100435.28
2022-10-29T22:59:08.740Z,100442.31
2022-10-29T23:01:42.227Z,100439.63
2022-10-29T23:04:13.830Z,100443.19
2022-10-29T23:06:43.444Z,100439.19
2022-10-29T23:09:11.233Z,100430.50
2022-10-29T23:11:40.824Z,100444.44
2022-10-29T23:14:08.697Z,100434.22
2022-10-29T23:16:38.385Z,100428.16
2022-10-29T23:19:08.191Z,100420.22
2022-10-29T23:21:37.015Z,100418.88
2022-10-29T23:24:07.237Z,100420.69
2022-10-29T23:26:36.814Z,100414.03
2022-10-29T23:29:06.415Z,100414.69
2022-10-29T23:31:35.931Z,100415.06
2022-10-29T23:34:11.844Z,100417.41
2022-10-29T23:36:41.663Z,100409.03
2022-10-29T23:39:12.755Z,100409.31
2022-10-29T23:41:42.218Z,100399.84
2022-10-29T23:44:11.686Z,100403.94
2022-10-29T23:46:41.145Z,100398.44
2022-10-29T23:49:08.887Z,100394.97
2022-10-29T23:51:38.394Z,100397.88
2022-10-29T23:54:07.871Z,100405.84
2022-10-29T23:56:37.392Z,100410.97
2022-10-29T23:59:05.085Z,100405.94
